createdAt,value
2022-11-14T00:01:43.449Z,16.20
2022-11-14T00:04:09.910Z,16.20
2022-11-14T00:06:36.359Z,16.20
2022-11-14T00:09:02.828Z,16.20
2022-11-14T00:11:29.306Z,16.20
2022-11-14T00:13:55.781Z,16.10
2022-11-14T00:16:22.246Z,16.10
2022-11-14T00:18:48.718Z,16.10
2022-11-14T00:21:15.188Z,16.10
2022-11-14T00:23:41.648Z,16.20
2022-11-14T00:26:08.134Z,16.20
2022-11-14T00:28:34.601Z,16.10
2022-11-14T00:31:01.044Z,16.10
2022-11-14T00:33:27.527Z,16.10
2022-11-14T00:35:53.992Z,16.10
2022-11-14T00:38:20.485Z,16.10
2022-11-14T00:40:46.965Z,16.10
2022-11-14T00:43:13.471Z,16.10
2022-11-14T00:45:39.922Z,16.20
2022-11-14T00:48:06.387Z,16.10
2022-11-14T00:50:32.861Z,16.10
2022-11-14T00:52:59.313Z,16.10
2022-11-14T00:55:25.759Z,16.10
2022-11-14T00:57:55.198Z,16.10
2022-11-14T01:00:21.666Z,16.10
2022-11-14T01:02:49.255Z,16.10
2022-11-14T01:05:15.704Z,16.10
2022-11-14T01:07:42.175Z,16.10
2022-11-14T01:10:08.653Z,16.00
2022-11-14T01:12:35.118Z,16.00
2022-11-14T01:15:01.576Z,16.10
2022-11-14T01:17:28.038Z,16.10
2022-11-14T01:19:54.496Z,16.00
2022-11-14T01:22:20.954Z,16.00
2022-11-14T01:24:47.439Z,16.00
2022-11-14T01:27:13.900Z,16.10
2022-11-14T01:29:40.355Z,16.10
2022-11-14T01:32:06.800Z,16.00
2022-11-14T01:34:33.315Z,16.00
2022-11-14T01:36:59.785Z,16.00
2022-11-14T01:39:26.243Z,16.00
2022-11-14T01:41:52.697Z,16.00
2022-11-14T01:44:19.181Z,16.00
2022-11-14T01:46:45.666Z,16.00
2022-11-14T01:49:12.127Z,16.00
2022-11-14T01:51:38.605Z,16.00
2022-11-14T01:54:05.078Z,16.00
2022-11-14T01:56:31.549Z,16.00
2022-11-14T01:58:58.012Z,16.00
2022-11-14T02:01:24.507Z,16.00
2022-11-14T02:03:51.032Z,15.90
2022-11-14T02:06:17.474Z,15.90
2022-11-14T02:08:43.946Z,15.90
2022-11-14T02:11:13.273Z,15.90
2022-11-14T02:13:39.746Z,15.90
2022-11-14T02:16:06.211Z,15.90
2022-11-14T02:18:32.828Z,15.90
2022-11-14T02:20:59.332Z,15.90
2022-11-14T02:23:25.808Z,15.90
2022-11-14T02:25:52.256Z,15.90
2022-11-14T02:28:18.721Z,15.90
2022-11-14T02:30:45.206Z,15.80
2022-11-14T02:33:12.016Z,15.80
2022-11-14T02:35:38.555Z,15.80
2022-11-14T02:38:05.012Z,15.90
2022-11-14T02:40:31.492Z,15.90
2022-11-14T02:42:57.953Z,15.80
2022-11-14T02:45:24.418Z,15.90
2022-11-14T02:47:50.867Z,15.90
2022-11-14T02:50:17.352Z,15.90
2022-11-14T02:52:43.830Z,15.90
2022-11-14T02:55:10.298Z,15.90
2022-11-14T02:57:36.747Z,15.90
2022-11-14T03:00:03.206Z,15.90
2022-11-14T03:02:29.648Z,15.90
2022-11-14T03:04:56.110Z,15.90
2022-11-14T03:07:22.705Z,15.90
2022-11-14T03:09:49.201Z,15.90
2022-11-14T03:12:15.666Z,15.90
2022-11-14T03:14:42.135Z,15.90
2022-11-14T03:17:08.602Z,15.90
2022-11-14T03:19:35.072Z,15.90
2022-11-14T03:22:01.526Z,15.80
2022-11-14T03:24:27.995Z,15.80
2022-11-14T03:26:54.453Z,15.80
2022-11-14T03:29:20.916Z,15.90
2022-11-14T03:31:47.377Z,15.80
2022-11-14T03:34:13.842Z,15.90
2022-11-14T03:36:40.314Z,15.80
2022-11-14T03:39:06.769Z,15.80
2022-11-14T03:41:33.234Z,15.80
2022-11-14T03:43:59.690Z,15.80
2022-11-14T03:46:26.147Z,15.90
2022-11-14T03:48:52.622Z,15.90
2022-11-14T03:51:19.087Z,15.80
2022-11-14T03:53:45.568Z,15.80
2022-11-14T03:56:12.015Z,15.80
2022-11-14T03:58:38.494Z,15.80
2022-11-14T04:01:05.023Z,15.80
2022-11-14T04:03:31.529Z,15.80
2022-11-14T04:05:58.018Z,15.80
2022-11-14T04:08:24.483Z,15.80
2022-11-14T04:10:50.951Z,15.80
2022-11-14T04:13:17.423Z,15.80
2022-11-14T04:15:43.894Z,15.80
2022-11-14T04:18:10.346Z,15.80
2022-11-14T04:20:36.804Z,15.80
2022-11-14T04:23:03.269Z,15.80
2022-11-14T04:25:29.726Z,15.80
2022-11-14T04:27:56.190Z,15.70
2022-11-14T04:30:22.660Z,15.80
2022-11-14T04:32:49.132Z,15.80
2022-11-14T04:35:15.608Z,15.70
2022-11-14T04:37:42.064Z,15.70
2022-11-14T04:40:08.526Z,15.70
2022-11-14T04:42:34.997Z,15.70
2022-11-14T04:45:01.534Z,15.70
2022-11-14T04:47:28.031Z,15.70
2022-11-14T04:49:54.541Z,15.70
2022-11-14T04:52:21.017Z,15.80
2022-11-14T04:54:47.482Z,15.70
2022-11-14T04:57:13.937Z,15.70
2022-11-14T04:59:40.385Z,15.70
2022-11-14T05:02:06.832Z,15.70
2022-11-14T05:04:33.301Z,15.70
2022-11-14T05:06:59.877Z,15.70
2022-11-14T05:09:26.406Z,15.70
2022-11-14T05:11:52.882Z,15.70
2022-11-14T05:14:19.351Z,15.70
2022-11-14T05:16:45.814Z,15.70
2022-11-14T05:19:12.283Z,15.70
2022-11-14T05:21:38.742Z,15.70
2022-11-14T05:24:05.200Z,15.70
2022-11-14T05:26:31.692Z,15.70
2022-11-14T05:28:58.164Z,15.70
2022-11-14T05:31:24.652Z,15.70
2022-11-14T05:33:51.125Z,15.70
2022-11-14T05:36:17.574Z,15.70
2022-11-14T05:38:44.032Z,15.70
2022-11-14T05:41:10.480Z,15.70
2022-11-14T05:43:36.967Z,15.70
2022-11-14T05:46:03.427Z,15.70
2022-11-14T05:48:30.190Z,15.70
2022-11-14T05:50:57.000Z,15.70
2022-11-14T05:53:23.469Z,15.60
2022-11-14T05:55:49.942Z,15.70
2022-11-14T05:58:16.407Z,15.60
2022-11-14T06:00:50.789Z,15.70
2022-11-14T06:03:20.051Z,15.70
2022-11-14T06:05:46.520Z,15.70
2022-11-14T06:08:12.984Z,15.70
2022-11-14T06:10:39.434Z,15.70
2022-11-14T06:13:05.888Z,15.70
2022-11-14T06:15:32.309Z,15.70
2022-11-14T06:17:58.782Z,15.70
2022-11-14T06:20:25.255Z,15.70
2022-11-14T06:22:51.711Z,15.70
2022-11-14T06:25:18.175Z,15.60
2022-11-14T06:27:44.644Z,15.70
2022-11-14T06:30:11.107Z,15.70
2022-11-14T06:32:37.566Z,15.70
2022-11-14T06:35:04.028Z,15.60
2022-11-14T06:37:33.675Z,15.60
2022-11-14T06:40:00.415Z,15.60
2022-11-14T06:42:26.874Z,15.60
2022-11-14T06:44:53.360Z,15.60
2022-11-14T06:47:19.809Z,15.60
2022-11-14T06:49:46.356Z,15.60
2022-11-14T06:52:12.831Z,15.60
2022-11-14T06:54:39.298Z,15.60
2022-11-14T06:57:05.741Z,15.70
2022-11-14T06:59:32.220Z,15.60
2022-11-14T07:01:58.695Z,15.60
2022-11-14T07:04:25.152Z,15.60
2022-11-14T07:06:51.683Z,15.60
2022-11-14T07:09:18.218Z,15.60
2022-11-14T07:11:44.680Z,15.70
2022-11-14T07:14:11.158Z,15.60
2022-11-14T07:16:37.635Z,15.60
2022-11-14T07:19:04.115Z,15.60
2022-11-14T07:21:30.611Z,15.60
2022-11-14T07:23:57.084Z,15.60
2022-11-14T07:26:23.595Z,15.60
2022-11-14T07:28:53.562Z,15.70
2022-11-14T07:31:22.013Z,15.60
2022-11-14T07:33:48.466Z,15.60
2022-11-14T07:36:14.907Z,15.60
2022-11-14T07:38:41.374Z,15.60
2022-11-14T07:43:51.952Z,15.60
2022-11-14T07:46:18.408Z,15.60
2022-11-14T07:48:44.875Z,15.60
2022-11-14T07:51:11.350Z,15.60
2022-11-14T07:53:37.804Z,15.60
2022-11-14T07:56:04.268Z,15.60
2022-11-14T07:58:31.005Z,15.60
2022-11-14T08:00:57.673Z,15.60
2022-11-14T08:03:24.182Z,15.60
2022-11-14T08:05:50.642Z,15.70
2022-11-14T08:08:17.125Z,15.60
2022-11-14T08:10:43.591Z,15.70
2022-11-14T08:13:31.067Z,15.70
2022-11-14T08:15:56.502Z,15.60
2022-11-14T08:18:22.976Z,15.70
2022-11-14T08:20:49.441Z,15.60
2022-11-14T08:23:15.918Z,15.60
2022-11-14T08:25:42.379Z,15.70
2022-11-14T08:28:08.861Z,15.70
2022-11-14T08:30:35.328Z,15.80
2022-11-14T08:33:01.823Z,15.80
2022-11-14T08:35:28.278Z,15.70
2022-11-14T08:37:54.748Z,15.70
2022-11-14T08:40:21.230Z,15.60
2022-11-14T08:42:47.683Z,15.70
2022-11-14T08:45:14.144Z,15.70
2022-11-14T08:47:40.598Z,15.70
2022-11-14T08:50:07.053Z,15.80
2022-11-14T08:52:33.516Z,15.70
2022-11-14T08:54:59.982Z,15.80
2022-11-14T08:57:26.429Z,15.80
2022-11-14T08:59:52.890Z,15.80
2022-11-14T09:02:19.353Z,15.70
2022-11-14T09:04:45.835Z,15.70
2022-11-14T09:07:12.450Z,15.80
2022-11-14T09:09:38.956Z,15.80
2022-11-14T09:12:05.421Z,15.80
2022-11-14T09:14:31.871Z,15.80
2022-11-14T09:17:03.136Z,15.80
2022-11-14T09:19:32.112Z,15.80
2022-11-14T09:21:58.568Z,15.80
2022-11-14T09:24:25.026Z,15.70
2022-11-14T09:26:57.177Z,15.80
2022-11-14T09:29:23.855Z,15.80
2022-11-14T09:31:50.325Z,15.80
2022-11-14T09:34:16.791Z,15.80
2022-11-14T09:36:43.253Z,15.80
2022-11-14T09:39:09.721Z,15.80
2022-11-14T09:41:36.172Z,15.80
2022-11-14T09:44:02.657Z,15.70
2022-11-14T09:46:29.119Z,15.70
2022-11-14T09:48:55.592Z,15.70
2022-11-14T09:51:22.050Z,15.80
2022-11-14T09:53:48.517Z,15.80
2022-11-14T09:56:14.984Z,15.70
2022-11-14T09:58:41.477Z,15.80
2022-11-14T10:01:09.640Z,15.80
2022-11-14T10:03:36.350Z,15.80
2022-11-14T10:06:02.834Z,15.70
2022-11-14T10:08:29.289Z,15.70
2022-11-14T10:10:55.751Z,15.70
2022-11-14T10:13:22.210Z,15.80
2022-11-14T10:15:48.679Z,15.70
2022-11-14T10:18:15.145Z,15.70
2022-11-14T10:20:41.632Z,15.80
2022-11-14T10:23:08.117Z,15.80
2022-11-14T10:25:37.127Z,15.80
2022-11-14T10:28:06.022Z,15.70
2022-11-14T10:30:32.496Z,15.80
2022-11-14T10:32:58.971Z,15.80
2022-11-14T10:35:25.414Z,15.70
2022-11-14T10:37:51.878Z,15.70
2022-11-14T10:40:18.435Z,15.80
2022-11-14T10:42:44.933Z,15.70
2022-11-14T10:45:11.400Z,15.70
2022-11-14T10:47:37.852Z,15.80
2022-11-14T10:50:04.309Z,15.70
2022-11-14T10:52:30.754Z,15.70
2022-11-14T10:54:57.239Z,15.70
2022-11-14T10:57:23.698Z,15.70
2022-11-14T10:59:50.173Z,15.70
2022-11-14T11:02:16.643Z,15.70
2022-11-14T11:04:43.116Z,15.70
2022-11-14T11:09:53.777Z,15.80
2022-11-14T11:12:20.275Z,15.80
2022-11-14T11:14:46.792Z,15.70
2022-11-14T11:17:13.256Z,15.70
2022-11-14T11:19:39.702Z,15.70
2022-11-14T11:22:06.183Z,15.70
2022-11-14T11:24:32.660Z,15.60
2022-11-14T11:26:59.160Z,15.70
2022-11-14T11:29:25.631Z,15.60
2022-11-14T11:31:52.226Z,15.70
2022-11-14T11:34:18.717Z,15.70
2022-11-14T11:36:45.173Z,15.70
2022-11-14T11:39:11.636Z,15.70
2022-11-14T11:42:08.771Z,15.70
2022-11-14T11:44:24.558Z,15.70
2022-11-14T11:46:51.028Z,15.70
2022-11-14T11:49:17.499Z,15.80
2022-11-14T11:51:44.562Z,15.70
2022-11-14T11:54:11.024Z,15.70
2022-11-14T11:56:37.482Z,15.70
2022-11-14T11:59:03.942Z,15.70
2022-11-14T12:01:30.426Z,15.70
2022-11-14T12:03:56.944Z,15.70
2022-11-14T12:06:23.516Z,15.80
2022-11-14T12:08:49.980Z,15.80
2022-11-14T12:11:16.478Z,15.80
2022-11-14T12:13:43.685Z,15.80
2022-11-14T12:16:13.074Z,15.70
2022-11-14T12:18:39.868Z,15.70
2022-11-14T12:21:06.314Z,15.80
2022-11-14T12:23:33.017Z,15.80
2022-11-14T12:25:59.612Z,15.80
2022-11-14T12:28:26.085Z,15.70
2022-11-14T12:30:52.558Z,15.80
2022-11-14T12:33:19.019Z,15.70
2022-11-14T12:35:45.496Z,15.70
2022-11-14T12:38:11.949Z,15.80
2022-11-14T12:40:38.429Z,15.80
2022-11-14T12:43:04.884Z,15.80
2022-11-14T12:45:31.352Z,15.80
2022-11-14T12:47:57.820Z,15.80
2022-11-14T12:50:24.289Z,15.70
2022-11-14T12:52:50.739Z,15.70
2022-11-14T12:55:17.222Z,15.70
2022-11-14T12:57:43.698Z,15.80
2022-11-14T13:00:10.190Z,15.70
2022-11-14T13:02:36.651Z,15.70
2022-11-14T13:05:03.137Z,15.70
2022-11-14T13:07:34.064Z,15.70
2022-11-14T13:10:01.099Z,15.70
2022-11-14T13:12:27.546Z,15.80
2022-11-14T13:14:54.018Z,15.70
2022-11-14T13:17:20.498Z,15.70
2022-11-14T13:19:46.969Z,15.80
2022-11-14T13:22:13.461Z,15.70
2022-11-14T13:24:39.907Z,15.80
2022-11-14T13:27:06.388Z,15.70
2022-11-14T13:29:37.790Z,15.70
2022-11-14T13:32:04.254Z,15.70
2022-11-14T13:34:30.706Z,15.70
2022-11-14T13:36:57.170Z,15.80
2022-11-14T13:39:23.631Z,15.70
2022-11-14T13:41:50.117Z,15.70
2022-11-14T13:44:16.590Z,15.70
2022-11-14T13:46:43.063Z,15.60
2022-11-14T13:49:09.539Z,15.70
2022-11-14T13:51:43.355Z,15.70
2022-11-14T13:54:14.726Z,15.70
2022-11-14T13:56:43.808Z,15.70
2022-11-14T13:59:10.271Z,15.60
2022-11-14T14:01:36.872Z,15.70
2022-11-14T14:04:03.360Z,15.70
2022-11-14T14:06:29.831Z,15.60
2022-11-14T14:08:56.305Z,15.60
2022-11-14T14:11:22.782Z,15.70
2022-11-14T14:13:53.970Z,15.70
2022-11-14T14:16:21.532Z,15.80
2022-11-14T14:18:47.972Z,15.70
2022-11-14T14:21:14.450Z,15.70
2022-11-14T14:23:40.902Z,15.70
2022-11-14T14:26:07.359Z,15.70
2022-11-14T14:28:33.977Z,15.70
2022-11-14T14:31:00.593Z,15.60
2022-11-14T14:33:27.066Z,15.70
2022-11-14T14:35:53.538Z,15.70
2022-11-14T14:38:20.007Z,15.70
2022-11-14T14:40:46.499Z,15.70
2022-11-14T14:43:12.969Z,15.70
2022-11-14T14:45:39.452Z,15.70
2022-11-14T14:48:05.908Z,15.80
2022-11-14T14:50:32.370Z,15.80
2022-11-14T14:52:58.837Z,15.70
2022-11-14T14:55:25.300Z,15.70
2022-11-14T14:57:51.773Z,15.70
2022-11-14T15:00:18.226Z,15.70
2022-11-14T15:02:44.685Z,15.70
2022-11-14T15:05:11.133Z,15.70
2022-11-14T15:07:37.664Z,15.70
2022-11-14T15:10:04.216Z,15.80
2022-11-14T15:12:30.680Z,15.80
2022-11-14T15:14:57.129Z,15.80
2022-11-14T15:17:23.596Z,15.70
2022-11-14T15:19:50.040Z,15.70
2022-11-14T15:22:16.491Z,15.70
2022-11-14T15:24:42.951Z,15.70
2022-11-14T15:27:09.426Z,15.70
2022-11-14T15:29:35.901Z,15.70
2022-11-14T15:32:02.363Z,15.70
2022-11-14T15:34:28.838Z,15.60
2022-11-14T15:36:55.299Z,15.70
2022-11-14T15:39:21.757Z,15.70
2022-11-14T15:41:48.243Z,15.70
2022-11-14T15:44:14.682Z,15.70
2022-11-14T15:46:41.160Z,15.70
2022-11-14T15:49:07.627Z,15.70
2022-11-14T15:51:34.100Z,15.70
2022-11-14T15:54:00.553Z,15.70
2022-11-14T15:56:27.016Z,15.70
2022-11-14T15:58:53.688Z,15.70
2022-11-14T16:01:20.405Z,15.70
2022-11-14T16:03:46.923Z,15.70
2022-11-14T16:06:13.402Z,15.70
2022-11-14T16:08:39.859Z,15.70
2022-11-14T16:11:06.317Z,15.70
2022-11-14T16:13:33.093Z,15.80
2022-11-14T16:15:59.840Z,15.70
2022-11-14T16:18:26.312Z,15.70
2022-11-14T16:20:52.774Z,15.70
2022-11-14T16:23:19.240Z,15.70
2022-11-14T16:25:45.724Z,15.70
2022-11-14T16:28:12.200Z,15.70
2022-11-14T16:30:39.120Z,15.70
2022-11-14T16:33:05.594Z,15.70
2022-11-14T16:35:32.061Z,15.70
2022-11-14T16:37:58.514Z,15.60
2022-11-14T16:40:24.981Z,15.60
2022-11-14T16:42:51.442Z,15.70
2022-11-14T16:45:17.993Z,15.70
2022-11-14T16:47:44.482Z,15.70
2022-11-14T16:50:10.939Z,15.80
2022-11-14T16:52:37.410Z,15.60
2022-11-14T16:55:03.884Z,15.70
2022-11-14T16:57:30.351Z,15.70
2022-11-14T16:59:56.818Z,15.70
2022-11-14T17:02:23.284Z,15.70
2022-11-14T17:04:49.754Z,15.60
2022-11-14T17:07:20.230Z,15.60
2022-11-14T17:09:49.273Z,15.80
2022-11-14T17:12:15.739Z,15.80
2022-11-14T17:14:42.195Z,15.70
2022-11-14T17:17:08.672Z,15.60
2022-11-14T17:19:35.136Z,15.60
2022-11-14T17:22:01.594Z,15.70
2022-11-14T17:24:31.388Z,15.70
2022-11-14T17:26:58.142Z,15.60
2022-11-14T17:29:24.614Z,15.70
2022-11-14T17:31:51.090Z,15.60
2022-11-14T17:34:17.542Z,15.60
2022-11-14T17:36:44.008Z,15.70
2022-11-14T17:39:10.472Z,15.70
2022-11-14T17:41:36.957Z,15.70
2022-11-14T17:44:03.415Z,15.60
2022-11-14T17:46:29.873Z,15.60
2022-11-14T17:48:56.350Z,15.60
2022-11-14T17:51:22.813Z,15.60
2022-11-14T17:53:49.281Z,15.60
2022-11-14T17:56:15.758Z,15.60
2022-11-14T17:58:42.216Z,15.60
2022-11-14T18:01:08.700Z,15.60
2022-11-14T18:03:35.237Z,15.70
2022-11-14T18:06:01.712Z,15.70
2022-11-14T18:08:28.383Z,15.70
2022-11-14T18:10:54.907Z,15.70
2022-11-14T18:13:21.355Z,15.80
2022-11-14T18:15:48.072Z,15.80
2022-11-14T18:18:14.548Z,15.60
2022-11-14T18:20:41.045Z,15.70
2022-11-14T18:23:07.503Z,15.70
2022-11-14T18:25:34.000Z,15.70
2022-11-14T18:28:00.458Z,15.80
2022-11-14T18:30:41.003Z,15.70
2022-11-14T18:33:08.398Z,15.80
2022-11-14T18:35:34.870Z,15.70
2022-11-14T18:38:01.320Z,15.70
2022-11-14T18:40:27.807Z,15.70
2022-11-14T18:42:54.259Z,15.70
2022-11-14T18:45:20.758Z,15.70
2022-11-14T18:47:47.233Z,15.70
2022-11-14T18:50:13.694Z,15.70
2022-11-14T18:52:40.159Z,15.70
2022-11-14T18:55:06.626Z,15.70
2022-11-14T18:57:33.071Z,15.80
2022-11-14T18:59:59.567Z,15.70
2022-11-14T19:02:26.137Z,15.70
2022-11-14T19:04:52.675Z,15.60
2022-11-14T19:07:19.210Z,15.60
2022-11-14T19:09:45.733Z,15.70
2022-11-14T19:12:12.197Z,15.70
2022-11-14T19:14:38.671Z,15.70
2022-11-14T19:17:05.131Z,15.70
2022-11-14T19:19:31.597Z,15.70
2022-11-14T19:21:58.074Z,15.70
2022-11-14T19:24:24.529Z,15.60
2022-11-14T19:26:51.004Z,15.60
2022-11-14T19:29:17.464Z,15.60
2022-11-14T19:31:43.926Z,15.60
2022-11-14T19:34:10.410Z,15.70
2022-11-14T19:39:23.370Z,15.60
2022-11-14T19:41:49.823Z,15.60
2022-11-14T19:44:16.324Z,15.60
2022-11-14T19:46:47.244Z,15.60
2022-11-14T19:49:14.399Z,15.70
2022-11-14T19:51:40.852Z,15.70
2022-11-14T19:54:07.306Z,15.70
2022-11-14T19:56:33.763Z,15.70
2022-11-14T19:59:00.260Z,15.60
2022-11-14T20:01:26.792Z,15.60
2022-11-14T20:03:53.331Z,15.60
2022-11-14T20:06:19.798Z,15.60
2022-11-14T20:08:46.278Z,15.60
2022-11-14T20:11:12.732Z,15.70
2022-11-14T20:13:39.201Z,15.70
2022-11-14T20:16:05.657Z,15.60
2022-11-14T20:18:32.110Z,15.60
2022-11-14T20:20:58.577Z,15.70
2022-11-14T20:23:25.044Z,15.60
2022-11-14T20:25:51.519Z,15.70
2022-11-14T20:28:17.970Z,15.70
2022-11-14T20:30:44.440Z,15.70
2022-11-14T20:33:10.921Z,15.70
2022-11-14T20:35:37.433Z,15.60
2022-11-14T20:38:04.888Z,15.70
2022-11-14T20:40:31.471Z,15.70
2022-11-14T20:42:57.940Z,15.70
2022-11-14T20:45:24.420Z,15.70
2022-11-14T20:47:50.893Z,15.70
2022-11-14T20:50:17.366Z,15.70
2022-11-14T20:52:43.834Z,15.70
2022-11-14T20:55:11.925Z,15.60
2022-11-14T20:57:38.568Z,15.70
2022-11-14T21:00:05.033Z,15.70
2022-11-14T21:02:31.474Z,15.70
2022-11-14T21:04:57.954Z,15.70
2022-11-14T21:07:24.542Z,15.70
2022-11-14T21:09:56.157Z,15.70
2022-11-14T21:12:22.607Z,15.70
2022-11-14T21:14:49.073Z,15.70
2022-11-14T21:17:15.526Z,15.70
2022-11-14T21:19:42.000Z,15.60
2022-11-14T21:22:08.517Z,15.60
2022-11-14T21:24:39.516Z,15.70
2022-11-14T21:27:06.299Z,15.70
2022-11-14T21:29:32.761Z,15.70
2022-11-14T21:31:59.228Z,15.60
2022-11-14T21:34:25.722Z,15.60
2022-11-14T21:36:52.178Z,15.60
2022-11-14T21:39:18.669Z,15.70
2022-11-14T21:41:45.372Z,15.60
2022-11-14T21:44:11.832Z,15.70
2022-11-14T21:46:38.291Z,15.60
2022-11-14T21:49:04.747Z,15.60
2022-11-14T21:51:31.201Z,15.70
2022-11-14T21:53:57.665Z,15.70
2022-11-14T21:56:24.118Z,15.60
2022-11-14T21:58:50.584Z,15.60
2022-11-14T22:01:17.078Z,15.70
2022-11-14T22:03:43.613Z,15.60
2022-11-14T22:06:10.086Z,15.70
2022-11-14T22:08:36.563Z,15.70
2022-11-14T22:11:03.022Z,15.60
2022-11-14T22:13:29.811Z,15.60
2022-11-14T22:15:56.533Z,15.60
2022-11-14T22:18:22.990Z,15.60
2022-11-14T22:20:49.453Z,15.70
2022-11-14T22:23:15.916Z,15.60
2022-11-14T22:25:42.366Z,15.60
2022-11-14T22:28:08.848Z,15.60
2022-11-14T22:30:35.312Z,15.70
2022-11-14T22:33:01.795Z,15.70
2022-11-14T22:35:28.243Z,15.60
2022-11-14T22:37:54.728Z,15.60
2022-11-14T22:40:21.185Z,15.60
2022-11-14T22:42:47.659Z,15.60
2022-11-14T22:45:14.122Z,15.60
2022-11-14T22:47:40.587Z,15.60
2022-11-14T22:50:07.052Z,15.60
2022-11-14T22:52:33.510Z,15.60
2022-11-14T22:54:59.978Z,15.60
2022-11-14T22:57:26.461Z,15.70
2022-11-14T22:59:52.938Z,15.60
2022-11-14T23:02:19.409Z,15.60
2022-11-14T23:04:45.871Z,15.60
2022-11-14T23:07:12.381Z,15.60
2022-11-14T23:09:38.892Z,15.60
2022-11-14T23:14:49.267Z,15.60
2022-11-14T23:17:15.726Z,15.60
2022-11-14T23:19:42.201Z,15.60
2022-11-14T23:22:08.682Z,15.60
2022-11-14T23:24:35.169Z,15.70
2022-11-14T23:27:01.647Z,15.60
2022-11-14T23:29:28.110Z,15.50
2022-11-14T23:31:54.568Z,15.60
2022-11-14T23:34:21.050Z,15.60
2022-11-14T23:36:47.495Z,15.70
2022-11-14T23:39:13.965Z,15.70
2022-11-14T23:41:40.436Z,15.60
2022-11-14T23:44:06.914Z,15.60
2022-11-14T23:46:33.389Z,15.70
2022-11-14T23:48:59.856Z,15.60
2022-11-14T23:51:26.303Z,15.60
2022-11-14T23:53:52.764Z,15.60
2022-11-14T23:56:19.239Z,15.60
2022-11-14T23:58:45.716Z,15.60
